createdAt,value
2022-10-19T00:01:21.400Z,11.57
2022-10-19T00:03:54.925Z,8.93
2022-10-19T00:06:32.408Z,12.82
2022-10-19T00:09:16.659Z,14.75
2022-10-19T00:11:48.406Z,14.55
2022-10-19T00:14:22.748Z,12.15
2022-10-19T00:16:52.996Z,13.32
2022-10-19T00:19:25.696Z,7.57
2022-10-19T00:21:53.508Z,13.80
2022-10-19T00:24:21.450Z,13.63
2022-10-19T00:26:48.496Z,12.52
2022-10-19T00:29:16.089Z,15.23
2022-10-19T00:31:43.416Z,12.07
2022-10-19T00:34:10.958Z,20.20
2022-10-19T00:36:40.899Z,11.70
2022-10-19T00:39:13.051Z,15.23
2022-10-19T00:41:40.912Z,15.32
2022-10-19T00:44:13.904Z,12.98
2022-10-19T00:46:44.892Z,12.32
2022-10-19T00:49:26.515Z,16.00
2022-10-19T00:52:03.271Z,13.10
2022-10-19T00:54:36.057Z,16.65
2022-10-19T00:57:04.685Z,11.93
2022-10-19T00:59:33.365Z,9.52
2022-10-19T01:02:03.984Z,14.23
2022-10-19T01:04:35.224Z,13.35
2022-10-19T01:07:05.286Z,11.35
2022-10-19T01:09:32.298Z,24.45
2022-10-19T01:12:36.332Z,14.93
2022-10-19T01:15:29.402Z,20.73
2022-10-19T01:18:33.263Z,12.32
2022-10-19T01:21:15.408Z,12.60
2022-10-19T01:24:05.925Z,12.95
2022-10-19T01:26:57.651Z,10.55
2022-10-19T01:29:49.067Z,12.40
2022-10-19T01:32:31.325Z,12.07
2022-10-19T01:35:18.020Z,17.13
2022-10-19T01:38:12.716Z,11.88
2022-10-19T01:41:00.206Z,18.98
2022-10-19T01:43:59.533Z,16.00
2022-10-19T01:46:38.701Z,14.73
2022-10-19T01:49:29.390Z,18.20
2022-10-19T01:52:04.047Z,13.32
2022-10-19T01:54:43.507Z,17.52
2022-10-19T01:57:19.995Z,14.70
2022-10-19T01:59:49.996Z,12.82
2022-10-19T02:02:20.748Z,16.83
2022-10-19T02:04:51.142Z,14.77
2022-10-19T02:07:22.850Z,13.52
2022-10-19T02:09:50.298Z,17.10
2022-10-19T02:12:18.801Z,16.27
2022-10-19T02:14:56.544Z,15.02
2022-10-19T02:17:33.363Z,16.00
2022-10-19T02:20:01.635Z,17.58
2022-10-19T02:22:29.331Z,18.55
2022-10-19T02:24:56.437Z,16.50
2022-10-19T02:27:23.816Z,16.70
2022-10-19T02:29:52.022Z,17.25
2022-10-19T02:32:21.468Z,15.13
2022-10-19T02:34:48.728Z,17.33
2022-10-19T02:37:15.881Z,17.77
2022-10-19T02:39:43.147Z,15.10
2022-10-19T02:42:38.577Z,18.00
2022-10-19T02:45:05.634Z,21.05
2022-10-19T02:47:44.923Z,17.60
2022-10-19T02:50:13.277Z,16.73
2022-10-19T02:52:41.614Z,16.08
2022-10-19T02:55:09.303Z,14.82
2022-10-19T02:57:37.255Z,10.48
2022-10-19T03:00:08.212Z,14.63
2022-10-19T03:02:35.358Z,15.65
2022-10-19T03:05:03.755Z,11.52
2022-10-19T03:07:30.804Z,11.57
2022-10-19T03:09:58.062Z,12.88
2022-10-19T03:12:25.143Z,15.57
2022-10-19T03:14:52.313Z,14.15
2022-10-19T03:17:19.582Z,11.38
2022-10-19T03:19:46.707Z,15.82
2022-10-19T03:22:14.978Z,11.48
2022-10-19T03:24:43.099Z,14.93
2022-10-19T03:27:10.237Z,16.92
2022-10-19T03:29:37.222Z,16.23
2022-10-19T03:32:05.014Z,19.88
2022-10-19T03:34:32.112Z,15.98
2022-10-19T03:36:59.314Z,15.80
2022-10-19T03:39:26.611Z,17.70
2022-10-19T03:41:53.588Z,18.65
2022-10-19T03:44:20.647Z,17.83
2022-10-19T03:46:47.681Z,16.13
2022-10-19T03:49:15.719Z,16.02
2022-10-19T03:51:42.854Z,14.98
2022-10-19T03:54:15.406Z,19.15
2022-10-19T03:56:43.587Z,15.48
2022-10-19T03:59:14.767Z,17.80
2022-10-19T04:01:46.159Z,14.95
2022-10-19T04:04:17.456Z,14.30
2022-10-19T04:06:49.932Z,11.88
2022-10-19T04:09:22.453Z,15.25
2022-10-19T04:11:50.451Z,15.95
2022-10-19T04:14:31.816Z,17.00
2022-10-19T04:17:02.393Z,15.07
2022-10-19T04:19:29.905Z,17.52
2022-10-19T04:21:57.807Z,15.10
2022-10-19T04:24:25.246Z,18.80
2022-10-19T04:26:55.543Z,18.77
2022-10-19T04:29:29.509Z,17.50
2022-10-19T04:31:58.602Z,14.00
2022-10-19T04:34:26.758Z,16.40
2022-10-19T04:36:53.997Z,16.60
2022-10-19T04:39:21.028Z,12.88
2022-10-19T04:41:48.035Z,18.05
2022-10-19T04:44:15.569Z,17.00
2022-10-19T04:46:43.652Z,20.48
2022-10-19T04:49:10.696Z,23.95
2022-10-19T04:51:37.771Z,22.70
2022-10-19T04:54:04.911Z,18.60
2022-10-19T04:56:32.377Z,16.77
2022-10-19T04:59:01.090Z,16.52
2022-10-19T05:01:31.267Z,15.65
2022-10-19T05:04:01.762Z,21.67
2022-10-19T05:06:31.120Z,14.90
2022-10-19T05:08:59.174Z,18.42
2022-10-19T05:11:26.893Z,15.98
2022-10-19T05:13:54.265Z,12.73
2022-10-19T05:16:23.750Z,19.35
2022-10-19T05:18:56.121Z,11.10
2022-10-19T05:21:23.228Z,11.82
2022-10-19T05:23:55.802Z,14.55
2022-10-19T05:26:26.547Z,17.50
2022-10-19T05:29:01.801Z,14.00
2022-10-19T05:31:32.666Z,15.75
2022-10-19T05:34:00.778Z,13.68
2022-10-19T05:36:37.352Z,13.00
2022-10-19T05:39:15.799Z,15.07
2022-10-19T05:41:47.722Z,11.43
2022-10-19T05:44:20.281Z,13.93
2022-10-19T05:46:49.784Z,13.48
2022-10-19T05:49:21.038Z,13.43
2022-10-19T05:51:49.566Z,17.17
2022-10-19T05:54:17.475Z,12.90
2022-10-19T05:56:46.043Z,14.48
2022-10-19T05:59:20.974Z,15.63
2022-10-19T06:01:48.591Z,14.90
2022-10-19T06:06:45.475Z,14.20
2022-10-19T06:09:12.858Z,12.05
2022-10-19T06:11:42.826Z,14.13
2022-10-19T06:14:16.002Z,15.77
2022-10-19T06:16:45.736Z,14.13
2022-10-19T06:19:12.788Z,11.18
2022-10-19T06:21:41.979Z,12.15
2022-10-19T06:24:14.190Z,20.35
2022-10-19T06:26:41.280Z,15.30
2022-10-19T06:29:08.373Z,14.57
2022-10-19T06:31:36.518Z,16.02
2022-10-19T06:34:04.459Z,17.80
2022-10-19T06:36:32.774Z,16.75
2022-10-19T06:39:01.680Z,14.02
2022-10-19T06:41:31.353Z,15.93
2022-10-19T06:44:09.736Z,13.82
2022-10-19T06:46:38.800Z,15.30
2022-10-19T06:49:05.815Z,13.65
2022-10-19T06:51:34.190Z,15.65
2022-10-19T06:54:01.277Z,14.10
2022-10-19T06:56:28.470Z,16.52
2022-10-19T06:58:55.811Z,10.70
2022-10-19T07:01:23.491Z,14.55
2022-10-19T07:03:55.259Z,15.43
2022-10-19T07:06:23.755Z,11.52
2022-10-19T07:08:52.542Z,12.10
2022-10-19T07:11:22.505Z,13.43
2022-10-19T07:13:50.418Z,11.50
2022-10-19T07:16:20.917Z,14.20
2022-10-19T07:18:52.202Z,12.57
2022-10-19T07:21:21.765Z,9.60
2022-10-19T07:23:49.410Z,13.60
2022-10-19T07:26:26.294Z,14.93
2022-10-19T07:28:56.981Z,9.38
2022-10-19T07:31:26.912Z,10.82
2022-10-19T07:34:02.732Z,10.65
2022-10-19T07:36:32.389Z,13.10
2022-10-19T07:39:01.996Z,9.57
2022-10-19T07:41:30.021Z,10.48
2022-10-19T07:43:57.937Z,10.75
2022-10-19T07:46:29.265Z,9.23
2022-10-19T07:48:56.328Z,9.30
2022-10-19T07:51:23.565Z,12.73
2022-10-19T07:53:50.780Z,10.77
2022-10-19T07:56:28.138Z,9.68
2022-10-19T07:58:58.585Z,12.43
2022-10-19T08:01:32.871Z,12.82
2022-10-19T08:06:49.707Z,12.18
2022-10-19T08:09:39.948Z,16.85
2022-10-19T08:12:05.799Z,11.82
2022-10-19T08:14:33.243Z,15.85
2022-10-19T08:17:00.841Z,12.80
2022-10-19T08:19:28.095Z,16.05
2022-10-19T08:21:55.088Z,13.50
2022-10-19T08:24:22.144Z,12.80
2022-10-19T08:26:51.297Z,15.32
2022-10-19T08:29:21.319Z,10.18
2022-10-19T08:31:49.644Z,15.10
2022-10-19T08:34:17.329Z,10.70
2022-10-19T08:36:44.440Z,13.35
2022-10-19T08:39:12.845Z,8.73
2022-10-19T08:41:40.910Z,8.98
2022-10-19T08:45:01.704Z,7.70
2022-10-19T08:47:37.675Z,7.78
2022-10-19T08:50:18.185Z,4.70
2022-10-19T08:52:55.265Z,8.45
2022-10-19T08:55:38.432Z,6.78
2022-10-19T08:58:26.623Z,4.28
2022-10-19T09:01:20.673Z,8.43
2022-10-19T09:03:59.917Z,6.53
2022-10-19T09:06:44.897Z,6.72
2022-10-19T09:09:19.358Z,4.65
2022-10-19T09:11:50.246Z,6.82
2022-10-19T09:14:38.476Z,13.70
2022-10-19T09:17:17.039Z,6.82
2022-10-19T09:19:44.255Z,5.00
2022-10-19T09:22:25.760Z,7.60
2022-10-19T09:24:59.144Z,7.30
2022-10-19T09:27:36.238Z,3.97
2022-10-19T09:30:24.156Z,7.47
2022-10-19T09:33:00.462Z,5.28
2022-10-19T09:35:38.742Z,3.55
2022-10-19T09:38:07.836Z,7.40
2022-10-19T09:40:35.478Z,9.20
2022-10-19T09:43:19.555Z,7.03
2022-10-19T09:46:11.618Z,3.70
2022-10-19T09:48:53.514Z,6.28
2022-10-19T09:51:21.247Z,6.53
2022-10-19T09:53:59.747Z,6.30
2022-10-19T09:56:28.096Z,4.15
2022-10-19T09:58:58.696Z,3.97
2022-10-19T10:01:43.931Z,6.43
2022-10-19T10:04:17.891Z,7.20
2022-10-19T10:06:49.294Z,4.97
2022-10-19T10:09:22.719Z,5.35
2022-10-19T10:11:51.358Z,4.13
2022-10-19T10:14:28.699Z,4.47
2022-10-19T10:17:14.523Z,5.22
2022-10-19T10:20:06.572Z,5.55
2022-10-19T10:22:37.164Z,4.43
2022-10-19T10:25:17.754Z,4.75
2022-10-19T10:27:59.864Z,6.05
2022-10-19T10:30:38.026Z,7.22
2022-10-19T10:33:13.410Z,3.05
2022-10-19T10:36:01.247Z,6.82
2022-10-19T10:38:35.652Z,4.38
2022-10-19T10:41:29.033Z,5.78
2022-10-19T10:44:04.917Z,6.95
2022-10-19T10:47:05.064Z,4.85
2022-10-19T10:49:38.448Z,6.22
2022-10-19T10:52:15.177Z,4.00
2022-10-19T10:55:00.635Z,5.28
2022-10-19T10:57:36.698Z,3.15
2022-10-19T11:00:15.275Z,4.07
2022-10-19T11:02:54.285Z,4.13
2022-10-19T11:05:31.225Z,5.63
2022-10-19T11:08:18.976Z,3.58
2022-10-19T11:11:14.075Z,3.47
2022-10-19T11:13:56.721Z,4.22
2022-10-19T11:16:41.339Z,3.85
2022-10-19T11:22:48.083Z,5.32
2022-10-19T11:25:30.984Z,5.20
2022-10-19T11:28:21.742Z,3.80
2022-10-19T11:31:02.248Z,1.90
2022-10-19T11:33:55.143Z,3.10
2022-10-19T11:36:59.985Z,2.53
2022-10-19T11:40:08.546Z,2.40
2022-10-19T11:42:56.165Z,1.65
2022-10-19T11:45:50.496Z,2.92
2022-10-19T11:48:44.229Z,2.22
2022-10-19T11:51:51.597Z,2.85
2022-10-19T11:54:38.940Z,3.22
2022-10-19T11:57:26.226Z,2.08
2022-10-19T12:00:14.944Z,3.58
2022-10-19T12:06:02.841Z,3.33
2022-10-19T12:08:49.201Z,2.70
2022-10-19T12:11:36.785Z,3.63
2022-10-19T12:14:13.509Z,3.50
2022-10-19T12:16:50.661Z,5.07
2022-10-19T12:19:26.626Z,6.20
2022-10-19T12:22:01.818Z,3.53
2022-10-19T12:24:33.485Z,2.88
2022-10-19T12:27:02.124Z,3.10
2022-10-19T12:29:36.726Z,2.53
2022-10-19T12:32:07.412Z,2.75
2022-10-19T12:34:55.729Z,3.10
2022-10-19T12:37:41.340Z,4.13
2022-10-19T12:40:43.718Z,3.53
2022-10-19T12:43:31.526Z,3.20
2022-10-19T12:46:29.403Z,5.05
2022-10-19T12:49:30.636Z,4.45
2022-10-19T12:52:02.486Z,4.93
2022-10-19T12:54:34.171Z,5.18
2022-10-19T12:57:22.718Z,6.55
2022-10-19T13:00:05.399Z,4.00
2022-10-19T13:02:40.304Z,7.25
2022-10-19T13:05:07.722Z,1.63
2022-10-19T13:07:36.935Z,3.25
2022-10-19T13:10:18.678Z,4.32
2022-10-19T13:12:48.980Z,3.42
2022-10-19T13:15:35.021Z,2.25
2022-10-19T13:18:13.831Z,5.63
2022-10-19T13:20:53.731Z,5.28
2022-10-19T13:23:26.868Z,5.65
2022-10-19T13:26:34.095Z,4.78
2022-10-19T13:29:01.836Z,4.72
2022-10-19T13:31:32.969Z,5.20
2022-10-19T13:34:00.244Z,4.28
2022-10-19T13:36:27.536Z,6.13
2022-10-19T13:39:00.440Z,3.80
2022-10-19T13:41:47.879Z,3.35
2022-10-19T13:44:22.232Z,5.72
2022-10-19T13:47:01.156Z,6.43
2022-10-19T13:49:55.163Z,5.75
2022-10-19T13:52:31.809Z,4.57
2022-10-19T13:55:37.619Z,5.35
2022-10-19T13:58:38.055Z,5.80
2022-10-19T14:01:30.592Z,6.07
2022-10-19T14:04:33.339Z,5.93
2022-10-19T14:07:13.586Z,4.60
2022-10-19T14:10:01.790Z,6.45
2022-10-19T14:12:40.402Z,3.60
2022-10-19T14:15:27.764Z,4.55
2022-10-19T14:17:56.147Z,4.13
2022-10-19T14:20:37.031Z,3.50
2022-10-19T14:23:25.240Z,6.18
2022-10-19T14:26:07.021Z,6.88
2022-10-19T14:28:34.686Z,4.55
2022-10-19T14:31:10.662Z,7.72
2022-10-19T14:33:46.442Z,4.20
2022-10-19T14:36:19.875Z,9.35
2022-10-19T14:38:53.012Z,7.10
2022-10-19T14:41:32.098Z,7.10
2022-10-19T14:44:02.943Z,7.22
2022-10-19T14:46:34.010Z,6.78
2022-10-19T14:49:06.428Z,6.97
2022-10-19T14:51:45.444Z,5.53
2022-10-19T14:54:29.073Z,7.40
2022-10-19T14:57:09.795Z,6.13
2022-10-19T14:59:52.872Z,6.78
2022-10-19T15:02:25.849Z,5.82
2022-10-19T15:04:58.330Z,4.70
2022-10-19T15:07:34.079Z,7.15
2022-10-19T15:10:07.311Z,4.88
2022-10-19T15:12:40.274Z,5.07
2022-10-19T15:15:33.637Z,6.45
2022-10-19T15:18:00.751Z,4.30
2022-10-19T15:20:49.045Z,7.65
2022-10-19T15:23:39.717Z,7.03
2022-10-19T15:26:20.523Z,8.27
2022-10-19T15:28:49.505Z,8.43
2022-10-19T15:31:24.617Z,9.27
2022-10-19T15:33:55.938Z,6.75
2022-10-19T15:36:25.384Z,6.07
2022-10-19T15:39:06.294Z,4.88
2022-10-19T15:41:45.460Z,7.40
2022-10-19T15:44:39.900Z,6.13
2022-10-19T15:47:23.112Z,4.65
2022-10-19T15:49:58.263Z,6.72
2022-10-19T15:52:31.616Z,7.32
2022-10-19T15:55:00.864Z,7.20
2022-10-19T15:57:32.912Z,5.43
2022-10-19T16:00:13.392Z,6.10
2022-10-19T16:02:40.807Z,6.13
2022-10-19T16:05:08.597Z,5.82
2022-10-19T16:07:41.241Z,5.63
2022-10-19T16:10:16.837Z,5.07
2022-10-19T16:12:44.083Z,5.38
2022-10-19T16:15:22.087Z,6.55
2022-10-19T16:17:57.353Z,4.85
2022-10-19T16:20:27.420Z,8.02
2022-10-19T16:22:54.693Z,5.75
2022-10-19T16:25:21.985Z,5.90
2022-10-19T16:27:49.147Z,8.98
2022-10-19T16:30:17.555Z,8.07
2022-10-19T16:32:44.668Z,6.63
2022-10-19T16:35:12.105Z,5.57
2022-10-19T16:37:39.088Z,6.43
2022-10-19T16:40:07.053Z,6.75
2022-10-19T16:42:34.997Z,5.65
2022-10-19T16:45:02.315Z,9.38
2022-10-19T16:47:29.388Z,9.18
2022-10-19T16:50:00.877Z,4.20
2022-10-19T16:52:29.113Z,4.28
2022-10-19T16:54:57.595Z,5.32
2022-10-19T16:57:25.591Z,6.63
2022-10-19T16:59:58.463Z,6.28
2022-10-19T17:02:25.678Z,3.92
2022-10-19T17:04:53.091Z,4.43
2022-10-19T17:07:20.183Z,5.43
2022-10-19T17:09:49.686Z,7.65
2022-10-19T17:12:18.092Z,6.55
2022-10-19T17:14:45.184Z,5.70
2022-10-19T17:17:12.826Z,4.72
2022-10-19T17:19:40.978Z,6.80
2022-10-19T17:22:07.937Z,6.97
2022-10-19T17:24:37.241Z,5.65
2022-10-19T17:27:04.223Z,6.00
2022-10-19T17:29:31.292Z,7.40
2022-10-19T17:31:59.509Z,3.97
2022-10-19T17:34:30.382Z,6.10
2022-10-19T17:36:57.473Z,5.00
2022-10-19T17:39:29.057Z,4.47
2022-10-19T17:42:01.715Z,6.60
2022-10-19T17:44:32.830Z,4.40
2022-10-19T17:47:01.116Z,11.02
2022-10-19T17:49:31.063Z,5.68
2022-10-19T17:51:58.478Z,6.30
2022-10-19T17:54:26.044Z,3.47
2022-10-19T17:56:53.184Z,6.72
2022-10-19T17:59:30.171Z,4.40
2022-10-19T18:02:04.143Z,7.75
2022-10-19T18:04:31.221Z,5.28
2022-10-19T18:06:58.224Z,6.55
2022-10-19T18:09:25.307Z,6.40
2022-10-19T18:11:52.312Z,7.15
2022-10-19T18:14:25.521Z,4.65
2022-10-19T18:16:53.658Z,9.15
2022-10-19T18:19:20.738Z,6.90
2022-10-19T18:21:49.079Z,4.38
2022-10-19T18:24:20.030Z,9.13
2022-10-19T18:26:51.302Z,4.68
2022-10-19T18:29:22.677Z,7.50
2022-10-19T18:31:54.374Z,8.10
2022-10-19T18:34:26.083Z,5.63
2022-10-19T18:36:54.339Z,5.53
2022-10-19T18:39:23.332Z,7.35
2022-10-19T18:41:54.540Z,6.70
2022-10-19T18:44:26.569Z,6.35
2022-10-19T18:46:57.006Z,7.75
2022-10-19T18:49:24.514Z,6.13
2022-10-19T18:51:55.359Z,8.32
2022-10-19T18:54:26.455Z,6.50
2022-10-19T18:56:54.329Z,9.25
2022-10-19T18:59:21.421Z,4.78
2022-10-19T19:01:48.506Z,10.82
2022-10-19T19:04:17.653Z,7.35
2022-10-19T19:06:44.797Z,5.72
2022-10-19T19:09:12.827Z,11.52
2022-10-19T19:11:41.187Z,5.88
2022-10-19T19:14:15.618Z,7.63
2022-10-19T19:16:44.326Z,6.22
2022-10-19T19:19:15.101Z,7.13
2022-10-19T19:21:44.742Z,6.35
2022-10-19T19:24:19.824Z,7.00
2022-10-19T19:26:54.120Z,10.18
2022-10-19T19:29:21.760Z,7.90
2022-10-19T19:31:49.325Z,7.00
2022-10-19T19:34:18.153Z,8.57
2022-10-19T19:36:49.040Z,5.75
2022-10-19T19:39:21.148Z,7.45
2022-10-19T19:41:49.857Z,8.40
2022-10-19T19:44:17.857Z,8.27
2022-10-19T19:46:46.382Z,9.55
2022-10-19T19:49:15.960Z,7.93
2022-10-19T19:51:43.152Z,6.82
2022-10-19T19:54:11.423Z,7.63
2022-10-19T19:56:39.295Z,8.20
2022-10-19T19:59:06.419Z,11.60
2022-10-19T20:01:33.598Z,8.05
2022-10-19T20:06:39.820Z,5.10
2022-10-19T20:09:09.148Z,7.10
2022-10-19T20:11:41.874Z,7.72
2022-10-19T20:14:10.780Z,6.07
2022-10-19T20:16:37.871Z,4.60
2022-10-19T20:19:10.486Z,6.50
2022-10-19T20:21:38.188Z,6.93
2022-10-19T20:24:05.750Z,6.40
2022-10-19T20:26:33.276Z,7.50
2022-10-19T20:29:03.546Z,5.53
2022-10-19T20:31:32.473Z,5.45
2022-10-19T20:33:59.539Z,4.90
2022-10-19T20:36:26.880Z,6.63
2022-10-19T20:38:57.517Z,10.38
2022-10-19T20:41:26.939Z,9.43
2022-10-19T20:43:55.340Z,8.98
2022-10-19T20:46:32.588Z,8.65
2022-10-19T20:49:01.935Z,10.20
2022-10-19T20:51:32.943Z,13.65
2022-10-19T20:54:03.417Z,9.05
2022-10-19T20:56:34.747Z,9.40
2022-10-19T20:59:10.643Z,16.10
2022-10-19T21:01:40.207Z,10.95
2022-10-19T21:04:10.304Z,13.10
2022-10-19T21:06:41.198Z,11.70
2022-10-19T21:09:09.707Z,11.13
2022-10-19T21:11:40.958Z,11.27
2022-10-19T21:14:13.238Z,10.60
2022-10-19T21:16:40.768Z,8.40
2022-10-19T21:19:16.593Z,9.70
2022-10-19T21:21:51.891Z,8.82
2022-10-19T21:24:23.298Z,8.10
2022-10-19T21:29:27.164Z,6.97
2022-10-19T21:31:54.743Z,8.15
2022-10-19T21:34:25.849Z,9.77
2022-10-19T21:36:54.449Z,7.35
2022-10-19T21:39:22.216Z,7.25
2022-10-19T21:41:50.308Z,8.20
2022-10-19T21:44:18.841Z,6.35
2022-10-19T21:46:49.779Z,7.53
2022-10-19T21:49:16.977Z,7.45
2022-10-19T21:51:50.080Z,7.05
2022-10-19T21:54:20.737Z,5.20
2022-10-19T21:56:48.827Z,11.57
2022-10-19T21:59:17.600Z,5.70
2022-10-19T22:01:44.773Z,8.02
2022-10-19T22:04:17.370Z,7.35
2022-10-19T22:06:45.616Z,7.32
2022-10-19T22:09:21.616Z,7.55
2022-10-19T22:11:48.900Z,6.72
2022-10-19T22:14:17.491Z,6.35
2022-10-19T22:16:44.986Z,6.63
2022-10-19T22:19:12.696Z,8.32
2022-10-19T22:21:40.412Z,4.93
2022-10-19T22:24:13.471Z,8.32
2022-10-19T22:26:45.672Z,8.70
2022-10-19T22:29:13.707Z,7.05
2022-10-19T22:31:40.838Z,6.35
2022-10-19T22:34:15.310Z,6.78
2022-10-19T22:39:10.252Z,9.38
2022-10-19T22:42:52.420Z,8.48
2022-10-19T22:45:24.312Z,7.82
2022-10-19T22:47:51.266Z,7.18
2022-10-19T22:50:18.332Z,8.82
2022-10-19T22:52:46.348Z,9.20
2022-10-19T22:55:13.287Z,8.73
2022-10-19T22:57:40.302Z,8.25
2022-10-19T23:00:08.354Z,11.88
2022-10-19T23:02:35.603Z,11.88
2022-10-19T23:05:02.999Z,9.35
2022-10-19T23:07:30.104Z,10.70
2022-10-19T23:09:57.076Z,12.48
2022-10-19T23:12:24.104Z,9.77
2022-10-19T23:14:51.175Z,9.23
2022-10-19T23:17:18.211Z,11.77
2022-10-19T23:19:46.147Z,10.63
2022-10-19T23:22:13.131Z,14.95
2022-10-19T23:24:40.239Z,12.05
2022-10-19T23:27:07.399Z,11.57
2022-10-19T23:29:35.411Z,15.05
2022-10-19T23:32:04.884Z,11.05
2022-10-19T23:34:32.003Z,11.35
2022-10-19T23:36:59.040Z,8.98
2022-10-19T23:39:26.074Z,11.68
2022-10-19T23:41:53.080Z,9.45
2022-10-19T23:44:20.079Z,10.57
2022-10-19T23:46:47.093Z,8.52
2022-10-19T23:49:14.197Z,8.52
2022-10-19T23:51:41.224Z,7.00
2022-10-19T23:54:08.339Z,13.18
2022-10-19T23:56:35.380Z,9.43
2022-10-19T23:59:03.484Z,12.20
